Time;durP1;ratioP1;P1;durP2;ratioP2;P2;SDS_P1;SDS_P2;PMS_P1;PMS_P2;Temp;Humidity;BMP_temperature;BMP_pressure;BME280_temperature;BME280_humidity;BME280_pressure;Samples;Min_cycle;Max_cycle;Signal;HPM_P1;HPM_P2
2021/11/11 00:00:19;;;;;;;18.77;8.03;;;;;;;-145.18;100.00;60484.78;5076133;28;20261;-67
2021/11/11 00:02:45;;;;;;;19.23;8.23;;;;;;;-145.18;100.00;60484.78;5081240;28;20033;-67
2021/11/11 00:05:11;;;;;;;20.50;8.60;;;;;;;-145.18;100.00;60484.78;5081290;28;20393;-67
2021/11/11 00:07:38;;;;;;;25.97;7.80;;;;;;;-145.18;100.00;60484.78;5077126;28;20155;-67
2021/11/11 00:10:05;;;;;;;19.80;8.50;;;;;;;-145.18;100.00;60484.78;5077203;28;20108;-67
2021/11/11 00:12:32;;;;;;;20.33;8.33;;;;;;;-145.18;100.00;60484.78;5073930;28;20039;-67
2021/11/11 00:14:59;;;;;;;19.60;7.87;;;;;;;-145.18;100.00;60484.78;5076334;28;20062;-67
2021/11/11 00:17:25;;;;;;;20.83;7.47;;;;;;;-145.18;100.00;60484.78;5081283;28;20042;-67
2021/11/11 00:19:50;;;;;;;19.10;8.37;;;;;;;-145.18;100.00;60484.78;5076516;28;20360;-67
2021/11/11 00:22:16;;;;;;;20.17;7.67;;;;;;;-145.18;100.00;60484.78;5075490;28;20125;-67
2021/11/11 00:24:41;;;;;;;19.17;7.43;;;;;;;-145.18;100.00;60484.78;5072684;28;20055;-67
2021/11/11 00:27:07;;;;;;;21.33;7.63;;;;;;;-145.18;100.00;60484.78;5080754;28;20032;-67
2021/11/11 00:29:32;;;;;;;18.53;7.73;;;;;;;-145.18;100.00;60484.78;5078553;28;20468;-67
2021/11/11 00:31:58;;;;;;;16.20;7.90;;;;;;;-145.18;100.00;60484.78;5077313;28;20508;-67
2021/11/11 00:34:24;;;;;;;18.67;7.80;;;;;;;-145.18;100.00;60484.78;5075683;28;20040;-67
2021/11/11 00:36:49;;;;;;;17.03;7.90;;;;;;;-145.18;100.00;60484.78;5080566;28;20090;-67
2021/11/11 00:39:14;;;;;;;21.27;8.30;;;;;;;-145.18;100.00;60484.78;5080672;28;20059;-67
2021/11/11 00:41:40;;;;;;;18.40;7.83;;;;;;;-145.18;100.00;60484.78;5092097;28;20016;-67
2021/11/11 00:44:05;;;;;;;24.73;8.63;;;;;;;-145.18;100.00;60484.78;5079908;28;20035;-66
2021/11/11 00:46:31;;;;;;;18.60;7.80;;;;;;;-145.18;100.00;60484.78;5075438;28;20023;-66
2021/11/11 00:48:56;;;;;;;19.20;7.73;;;;;;;-145.18;100.00;60484.78;5078096;28;20032;-66
2021/11/11 00:51:22;;;;;;;18.17;8.33;;;;;;;-145.18;100.00;60484.78;5082088;28;20034;-66
2021/11/11 00:53:47;;;;;;;19.90;8.20;;;;;;;-145.18;100.00;60484.78;5070139;28;20120;-66
2021/11/11 00:56:12;;;;;;;19.20;8.27;;;;;;;-145.18;100.00;60484.78;5082138;28;20491;-66
2021/11/11 00:58:38;;;;;;;20.93;7.87;;;;;;;-145.18;100.00;60484.78;5076443;28;20142;-66
2021/11/11 01:01:04;;;;;;;21.07;8.40;;;;;;;-145.18;100.00;60484.78;5076616;28;20027;-66
2021/11/11 01:03:35;;;;;;;19.53;8.73;;;;;;;-145.18;100.00;60484.78;5071605;28;20149;-66
2021/11/11 01:06:01;;;;;;;17.60;7.80;;;;;;;-145.18;100.00;60484.78;5076835;28;20038;-66
2021/11/11 01:08:28;;;;;;;19.87;8.13;;;;;;;-145.18;100.00;60484.78;5072837;28;20039;-66
2021/11/11 01:10:55;;;;;;;21.73;8.20;;;;;;;-145.18;100.00;60484.78;5075396;28;20024;-66
2021/11/11 01:13:20;;;;;;;23.63;8.60;;;;;;;-145.18;100.00;60484.78;5075754;28;20062;-66
2021/11/11 01:15:46;;;;;;;26.23;9.67;;;;;;;-145.18;100.00;60484.78;5074531;28;20072;-66
2021/11/11 01:18:11;;;;;;;22.30;9.07;;;;;;;-145.18;100.00;60484.78;5075217;28;20028;-66
2021/11/11 01:20:37;;;;;;;24.57;7.93;;;;;;;-145.18;100.00;60484.78;5075815;28;20028;-66
2021/11/11 01:23:03;;;;;;;18.30;8.07;;;;;;;-145.18;100.00;60484.78;5073882;28;20028;-66
2021/11/11 01:25:32;;;;;;;18.13;7.40;;;;;;;-145.18;100.00;60484.78;5076258;28;20283;-66
2021/11/11 01:27:59;;;;;;;19.90;9.17;;;;;;;-145.18;100.00;60484.78;5077932;28;20032;-66
2021/11/11 01:30:24;;;;;;;20.43;8.57;;;;;;;-145.18;100.00;60484.78;5074439;28;20233;-66
2021/11/11 01:32:50;;;;;;;21.57;9.03;;;;;;;-145.18;100.00;60484.78;5076386;28;20193;-66
2021/11/11 01:35:15;;;;;;;21.87;8.40;;;;;;;-145.18;100.00;60484.78;5073547;28;20031;-66
2021/11/11 01:37:41;;;;;;;21.43;8.93;;;;;;;-145.18;100.00;60484.78;5074872;28;20209;-66
2021/11/11 01:40:08;;;;;;;22.03;9.43;;;;;;;-145.18;100.00;60484.78;5078398;28;20189;-66
2021/11/11 01:43:05;;;;;;;21.27;8.43;;;;;;;-145.18;100.00;60484.78;5073440;28;20081;-66
2021/11/11 01:45:34;;;;;;;24.03;8.33;;;;;;;-145.18;100.00;60484.78;4997919;28;20052;-66
2021/11/11 01:48:00;;;;;;;27.83;8.73;;;;;;;-145.18;100.00;60484.78;5005761;28;20048;-66
2021/11/11 01:50:27;;;;;;;20.00;8.17;;;;;;;-145.18;100.00;60484.78;4996828;28;20037;-66
2021/11/11 01:52:53;;;;;;;20.10;8.37;;;;;;;-145.18;100.00;60484.78;4998733;28;20048;-66
2021/11/11 01:55:19;;;;;;;22.70;9.10;;;;;;;-145.18;100.00;60484.78;5003065;28;20581;-66
2021/11/11 01:57:45;;;;;;;20.37;8.73;;;;;;;-145.18;100.00;60484.78;4997923;28;20593;-66
2021/11/11 02:00:22;;;;;;;21.83;9.20;;;;;;;-145.18;100.00;60484.78;4997769;28;20112;-66
2021/11/11 02:03:01;;;;;;;26.23;7.73;;;;;;;-145.18;100.00;60484.78;5002946;28;20048;-66
2021/11/11 02:05:27;;;;;;;24.40;9.17;;;;;;;-145.18;100.00;60484.78;4987913;28;20373;-66
2021/11/11 02:07:54;;;;;;;22.43;8.67;;;;;;;-145.18;100.00;60484.78;4981867;28;20042;-66
2021/11/11 02:10:21;;;;;;;22.50;8.80;;;;;;;-145.18;100.00;60484.78;4997554;28;20112;-66
2021/11/11 02:12:46;;;;;;;22.70;8.87;;;;;;;-145.18;100.00;60484.78;4993488;28;20045;-66
2021/11/11 02:15:13;;;;;;;21.53;8.40;;;;;;;-145.18;100.00;60484.78;4984123;28;20471;-66
2021/11/11 02:17:40;;;;;;;21.50;8.70;;;;;;;-145.18;100.00;60484.78;5000138;28;20037;-66
2021/11/11 02:20:09;;;;;;;19.07;8.27;;;;;;;-145.18;100.00;60484.78;4999060;28;20381;-66
2021/11/11 02:22:35;;;;;;;22.67;8.57;;;;;;;-145.18;100.00;60484.78;5048320;28;20049;-66
2021/11/11 02:25:01;;;;;;;23.20;8.37;;;;;;;-145.18;100.00;60484.78;5073213;28;20523;-68
2021/11/11 02:27:26;;;;;;;22.77;9.53;;;;;;;-145.18;100.00;60484.78;5079689;28;20144;-66
2021/11/11 02:29:52;;;;;;;25.00;8.03;;;;;;;-145.18;100.00;60484.78;5078522;28;20115;-66
2021/11/11 02:32:17;;;;;;;23.43;9.00;;;;;;;-145.18;100.00;60484.78;5078948;28;20329;-66
2021/11/11 02:34:44;;;;;;;25.90;8.80;;;;;;;-145.18;100.00;60484.78;5077450;28;20027;-66
2021/11/11 02:37:09;;;;;;;24.97;9.07;;;;;;;-145.18;100.00;60484.78;5077013;28;20080;-66
2021/11/11 02:39:37;;;;;;;21.47;8.80;;;;;;;-145.18;100.00;60484.78;5077886;28;20279;-66
2021/11/11 02:42:03;;;;;;;24.57;8.80;;;;;;;-145.18;100.00;60484.78;5074567;28;20042;-66
2021/11/11 02:44:31;;;;;;;22.47;8.80;;;;;;;-145.18;100.00;60484.78;5071295;28;20116;-66
2021/11/11 02:46:57;;;;;;;18.70;8.20;;;;;;;-145.18;100.00;60484.78;5078251;28;20032;-66
2021/11/11 02:49:29;;;;;;;23.97;8.77;;;;;;;-145.18;100.00;60484.78;5076309;28;20035;-66
2021/11/11 02:51:55;;;;;;;27.67;9.30;;;;;;;-145.18;100.00;60484.78;5071678;28;20035;-66
2021/11/11 02:54:20;;;;;;;24.60;8.67;;;;;;;-145.18;100.00;60484.78;5071802;28;20088;-66
2021/11/11 02:56:46;;;;;;;21.33;9.43;;;;;;;-145.18;100.00;60484.78;5069033;28;20266;-66
2021/11/11 02:59:11;;;;;;;25.67;9.00;;;;;;;-145.18;100.00;60484.78;5071086;28;20024;-66
2021/11/11 03:01:36;;;;;;;22.10;9.13;;;;;;;-145.18;100.00;60484.78;5054556;28;20497;-66
2021/11/11 03:04:02;;;;;;;25.17;8.53;;;;;;;-145.18;100.00;60484.78;5047820;28;20037;-66
2021/11/11 03:06:27;;;;;;;25.40;9.43;;;;;;;-145.18;100.00;60484.78;5056122;28;20403;-66
2021/11/11 03:08:53;;;;;;;22.60;8.13;;;;;;;-145.18;100.00;60484.78;5053493;28;20033;-66
2021/11/11 03:11:20;;;;;;;24.13;9.77;;;;;;;-145.18;100.00;60484.78;5049340;28;20047;-66
2021/11/11 03:13:45;;;;;;;27.00;9.73;;;;;;;-145.18;100.00;60484.78;5049100;28;20485;-66
2021/11/11 03:16:10;;;;;;;23.10;9.30;;;;;;;-145.18;100.00;60484.78;5056681;28;20072;-66
2021/11/11 03:18:36;;;;;;;25.57;10.13;;;;;;;-145.18;100.00;60484.78;5053174;28;20029;-66
2021/11/11 03:21:01;;;;;;;27.13;10.03;;;;;;;-145.18;100.00;60484.78;5058144;28;20443;-66
2021/11/11 03:23:27;;;;;;;25.30;10.30;;;;;;;-145.18;100.00;60484.78;5058199;28;20020;-66
2021/11/11 03:25:52;;;;;;;27.13;10.20;;;;;;;-145.18;100.00;60484.78;5055424;28;20039;-66
2021/11/11 03:28:18;;;;;;;22.83;9.17;;;;;;;-145.18;100.00;60484.78;5048878;28;20503;-66
2021/11/11 03:30:44;;;;;;;23.33;9.83;;;;;;;-145.18;100.00;60484.78;5056165;28;20217;-66
2021/11/11 03:33:10;;;;;;;22.33;9.40;;;;;;;-145.18;100.00;60484.78;5045784;28;20044;-66
2021/11/11 03:35:36;;;;;;;25.33;10.33;;;;;;;-145.18;100.00;60484.78;5049061;28;20276;-66
2021/11/11 03:38:05;;;;;;;24.43;9.60;;;;;;;-145.18;100.00;60484.78;5057996;28;20025;-66
2021/11/11 03:40:34;;;;;;;25.63;9.57;;;;;;;-145.18;100.00;60484.78;5057308;28;20085;-66
2021/11/11 03:43:00;;;;;;;20.70;8.60;;;;;;;-145.18;100.00;60484.78;5056927;28;20194;-68
2021/11/11 03:45:27;;;;;;;20.90;9.60;;;;;;;-145.18;100.00;60484.78;5052052;28;20603;-66
2021/11/11 03:47:54;;;;;;;23.23;8.97;;;;;;;-145.18;100.00;60484.78;5057795;28;20116;-66
2021/11/11 03:50:20;;;;;;;24.97;10.13;;;;;;;-145.18;100.00;60484.78;5054702;28;20102;-66
2021/11/11 03:52:46;;;;;;;24.53;9.60;;;;;;;-145.18;100.00;60484.78;5045079;28;20033;-66
2021/11/11 03:55:14;;;;;;;22.73;9.87;;;;;;;-145.18;100.00;60484.78;5049853;28;20122;-66
2021/11/11 03:57:40;;;;;;;25.90;9.77;;;;;;;-145.18;100.00;60484.78;5057391;28;20253;-66
2021/11/11 04:00:12;;;;;;;22.13;8.93;;;;;;;-145.18;100.00;60484.78;5047435;28;20029;-66
2021/11/11 04:02:37;;;;;;;26.15;9.60;;;;;;;-145.18;100.00;60484.78;5051915;28;20029;-66
2021/11/11 04:05:04;;;;;;;21.17;9.57;;;;;;;-145.18;100.00;60484.78;5061339;28;20040;-66
2021/11/11 04:07:29;;;;;;;22.80;9.63;;;;;;;-145.18;100.00;60484.78;5069434;28;20118;-66
2021/11/11 04:09:55;;;;;;;21.70;10.00;;;;;;;-145.18;100.00;60484.78;5070619;28;20056;-66
2021/11/11 04:12:20;;;;;;;23.30;9.40;;;;;;;-145.18;100.00;60484.78;5076814;28;20492;-66
2021/11/11 04:14:46;;;;;;;23.60;10.17;;;;;;;-145.18;100.00;60484.78;5074103;28;20395;-66
2021/11/11 04:17:11;;;;;;;21.83;9.73;;;;;;;-145.18;100.00;60484.78;5077142;28;20029;-66
2021/11/11 04:19:36;;;;;;;28.57;10.50;;;;;;;-145.18;100.00;60484.78;5080338;28;20063;-66
2021/11/11 04:22:03;;;;;;;25.53;10.43;;;;;;;-145.18;100.00;60484.78;5077683;28;20278;-68
2021/11/11 04:24:29;;;;;;;24.80;10.00;;;;;;;-145.18;100.00;60484.78;5080247;28;20117;-66
2021/11/11 04:27:04;;;;;;;25.33;10.13;;;;;;;-145.18;100.00;60484.78;5077315;28;20637;-66
2021/11/11 04:29:32;;;;;;;23.83;10.00;;;;;;;-145.18;100.00;60484.78;5081004;28;20307;-66
2021/11/11 04:32:00;;;;;;;27.10;10.37;;;;;;;-145.18;100.00;60484.78;5080327;28;20055;-66
2021/11/11 04:34:28;;;;;;;21.67;9.07;;;;;;;-145.18;100.00;60484.78;5080778;28;20559;-66
2021/11/11 05:05:34;;;;;;;22.67;9.77;;;;;;;-145.18;100.00;60484.78;5070527;28;20056;-66
2021/11/11 05:08:00;;;;;;;24.80;9.33;;;;;;;-145.18;100.00;60484.78;5076160;28;20024;-66
2021/11/11 05:10:26;;;;;;;27.73;9.43;;;;;;;-145.18;100.00;60484.78;5078511;28;20438;-66
2021/11/11 05:12:51;;;;;;;21.80;9.23;;;;;;;-145.18;100.00;60484.78;5077044;28;20089;-66
2021/11/11 05:15:17;;;;;;;24.13;9.10;;;;;;;-145.18;100.00;60484.78;5075162;28;20032;-66
2021/11/11 05:17:45;;;;;;;22.73;9.50;;;;;;;-145.18;100.00;60484.78;5075724;28;20093;-66
2021/11/11 05:20:12;;;;;;;24.00;8.83;;;;;;;-145.18;100.00;60484.78;5068598;28;20123;-66
2021/11/11 05:22:37;;;;;;;20.97;8.97;;;;;;;-145.18;100.00;60484.78;5071307;28;20028;-66
2021/11/11 05:25:04;;;;;;;22.60;8.60;;;;;;;-145.18;100.00;60484.78;5079768;28;20084;-67
2021/11/11 05:27:30;;;;;;;25.87;8.97;;;;;;;-145.18;100.00;60484.78;5079664;28;20111;-67
2021/11/11 05:29:56;;;;;;;25.63;9.33;;;;;;;-145.18;100.00;60484.78;5078421;28;20091;-67
2021/11/11 05:32:21;;;;;;;25.13;8.80;;;;;;;-145.18;100.00;60484.78;5067895;28;20073;-67
2021/11/11 05:34:47;;;;;;;23.57;9.90;;;;;;;-145.18;100.00;60484.78;5068443;28;20578;-67
2021/11/11 05:37:13;;;;;;;21.07;8.80;;;;;;;-145.18;100.00;60484.78;5074949;28;20107;-67
2021/11/11 05:39:39;;;;;;;23.13;9.43;;;;;;;-145.18;100.00;60484.78;5079899;28;20120;-67
2021/11/11 05:42:06;;;;;;;19.93;8.40;;;;;;;-145.18;100.00;60484.78;5079634;28;20477;-67
2021/11/11 05:44:31;;;;;;;18.87;9.03;;;;;;;-145.18;100.00;60484.78;5079027;28;20077;-68
2021/11/11 05:46:57;;;;;;;22.77;9.20;;;;;;;-145.18;100.00;60484.78;5071788;28;20020;-67
2021/11/11 05:49:24;;;;;;;25.47;14.60;;;;;;;-145.18;100.00;60484.78;5078309;28;20494;-67
2021/11/11 05:51:52;;;;;;;21.23;8.73;;;;;;;-145.18;100.00;60484.78;5072140;28;20067;-67
2021/11/11 05:54:18;;;;;;;21.80;8.80;;;;;;;-145.18;100.00;60484.78;5076845;28;20028;-67
2021/11/11 05:56:43;;;;;;;24.17;8.87;;;;;;;-145.18;100.00;60484.78;5071759;28;20082;-67
2021/11/11 05:59:09;;;;;;;23.83;8.73;;;;;;;-145.18;100.00;60484.78;5078405;28;20019;-67
2021/11/11 06:01:35;;;;;;;19.27;7.90;;;;;;;-145.18;100.00;60484.78;5077291;28;20194;-67
2021/11/11 06:04:01;;;;;;;17.90;7.80;;;;;;;-145.18;100.00;60484.78;5069081;28;20056;-67
2021/11/11 06:06:27;;;;;;;19.73;8.30;;;;;;;-145.18;100.00;60484.78;5078532;28;20035;-67
2021/11/11 06:08:53;;;;;;;19.67;7.93;;;;;;;-145.18;100.00;60484.78;5068253;28;20366;-67
2021/11/11 06:11:18;;;;;;;21.13;9.43;;;;;;;-145.18;100.00;60484.78;5079556;28;20279;-67
2021/11/11 06:13:43;;;;;;;19.13;8.50;;;;;;;-145.18;100.00;60484.78;5072774;28;20110;-67
2021/11/11 06:16:09;;;;;;;20.57;8.17;;;;;;;-145.18;100.00;60484.78;5077235;28;20611;-67
2021/11/11 06:18:34;;;;;;;24.53;9.23;;;;;;;-145.18;100.00;60484.78;5079378;28;20024;-67
2021/11/11 06:21:00;;;;;;;22.63;8.50;;;;;;;-145.18;100.00;60484.78;5079331;28;20261;-67
2021/11/11 06:23:27;;;;;;;22.67;8.43;;;;;;;-145.18;100.00;60484.78;5075150;28;20209;-67
2021/11/11 06:25:53;;;;;;;24.57;8.63;;;;;;;-145.18;100.00;60484.78;5074404;28;20287;-67
2021/11/11 06:28:19;;;;;;;25.00;8.60;;;;;;;-145.18;100.00;60484.78;5073756;28;20135;-67
2021/11/11 06:30:44;;;;;;;23.93;9.27;;;;;;;-145.18;100.00;60484.78;5073100;28;20032;-67
2021/11/11 06:33:10;;;;;;;20.87;8.60;;;;;;;-145.18;100.00;60484.78;5077142;28;20067;-67
2021/11/11 06:35:35;;;;;;;28.40;9.67;;;;;;;-145.18;100.00;60484.78;5078727;28;20024;-67
2021/11/11 06:38:02;;;;;;;21.93;9.40;;;;;;;-145.18;100.00;60484.78;5079069;28;20032;-67
2021/11/11 06:40:29;;;;;;;26.20;9.40;;;;;;;-145.18;100.00;60484.78;5073050;28;20385;-67
2021/11/11 06:42:56;;;;;;;26.27;9.67;;;;;;;-145.18;100.00;60484.78;5078565;28;20028;-67
2021/11/11 06:45:23;;;;;;;24.77;9.00;;;;;;;-145.18;100.00;60484.78;5078204;28;20027;-67
2021/11/11 06:47:48;;;;;;;23.90;9.13;;;;;;;-145.18;100.00;60484.78;5078825;28;20506;-67
2021/11/11 06:50:14;;;;;;;20.53;8.57;;;;;;;-145.18;100.00;60484.78;5078032;28;20250;-67
2021/11/11 06:52:39;;;;;;;24.13;8.87;;;;;;;-145.18;100.00;60484.78;5078922;28;20031;-67
2021/11/11 06:55:07;;;;;;;27.67;8.93;;;;;;;-145.18;100.00;60484.78;5077889;28;20192;-67
2021/11/11 06:57:33;;;;;;;26.83;9.43;;;;;;;-145.18;100.00;60484.78;5078387;28;20657;-67
2021/11/11 06:59:59;;;;;;;19.13;7.43;;;;;;;-145.18;100.00;60484.78;5074456;28;20082;-67
2021/11/11 07:02:26;;;;;;;22.83;8.67;;;;;;;-145.18;100.00;60484.78;5067753;28;20028;-67
2021/11/11 07:04:52;;;;;;;17.93;8.23;;;;;;;-145.18;100.00;60484.78;5078122;28;20131;-67
2021/11/11 07:07:17;;;;;;;20.37;8.40;;;;;;;-145.18;100.00;60484.78;5075511;28;20028;-67
2021/11/11 07:09:43;;;;;;;21.77;8.77;;;;;;;-145.18;100.00;60484.78;5075537;28;20150;-67
2021/11/11 07:12:08;;;;;;;24.90;9.20;;;;;;;-145.18;100.00;60484.78;5076343;28;20198;-67
2021/11/11 07:14:36;;;;;;;22.20;9.80;;;;;;;-145.18;100.00;60484.78;5075391;28;20388;-67
2021/11/11 07:17:01;;;;;;;22.77;9.40;;;;;;;-145.18;100.00;60484.78;5073079;28;20138;-67
2021/11/11 07:19:27;;;;;;;24.10;8.33;;;;;;;-145.18;100.00;60484.78;5071312;28;20329;-67
2021/11/11 07:21:52;;;;;;;24.80;9.90;;;;;;;-145.18;100.00;60484.78;5073554;28;20066;-68
2021/11/11 07:24:18;;;;;;;26.37;9.10;;;;;;;-145.18;100.00;60484.78;5078246;28;20020;-67
2021/11/11 07:26:43;;;;;;;20.37;8.90;;;;;;;-145.18;100.00;60484.78;5077643;28;20089;-67
2021/11/11 07:29:09;;;;;;;18.40;8.20;;;;;;;-145.18;100.00;60484.78;5078054;28;20035;-67
2021/11/11 07:31:34;;;;;;;20.13;8.33;;;;;;;-145.18;100.00;60484.78;5076559;28;20262;-67
2021/11/11 07:34:00;;;;;;;16.40;7.43;;;;;;;-145.18;100.00;60484.78;5076517;28;20241;-67
2021/11/11 07:36:26;;;;;;;22.43;7.60;;;;;;;-145.18;100.00;60484.78;5079421;28;20032;-67
2021/11/11 07:38:53;;;;;;;19.97;7.80;;;;;;;-145.18;100.00;60484.78;5082405;28;20028;-68
2021/11/11 07:41:19;;;;;;;17.77;6.87;;;;;;;-145.18;100.00;60484.78;5075651;28;20044;-68
2021/11/11 07:43:44;;;;;;;17.20;6.83;;;;;;;-145.18;100.00;60484.78;5082836;28;20255;-68
2021/11/11 07:46:10;;;;;;;16.40;6.90;;;;;;;-145.18;100.00;60484.78;5081771;28;20108;-68
2021/11/11 07:48:35;;;;;;;19.23;7.07;;;;;;;-145.18;100.00;60484.78;5074099;28;20358;-68
2021/11/11 07:51:03;;;;;;;24.67;7.80;;;;;;;-145.18;100.00;60484.78;5074596;28;20081;-68
2021/11/11 07:53:29;;;;;;;20.47;8.20;;;;;;;-145.18;100.00;60484.78;5078222;28;20620;-68
2021/11/11 07:55:55;;;;;;;20.63;7.90;;;;;;;-145.18;100.00;60484.78;5079162;28;20376;-67
2021/11/11 07:58:21;;;;;;;19.37;7.80;;;;;;;-145.18;100.00;60484.78;5074676;28;20016;-68
2021/11/11 08:00:47;;;;;;;23.10;7.63;;;;;;;-145.18;100.00;60484.78;5070764;28;20047;-68
2021/11/11 08:03:12;;;;;;;21.60;8.10;;;;;;;-145.18;100.00;60484.78;5078077;28;20070;-68
2021/11/11 08:05:40;;;;;;;15.87;7.17;;;;;;;-145.18;100.00;60484.78;5072560;28;20028;-68
2021/11/11 08:08:06;;;;;;;25.20;7.70;;;;;;;-145.18;100.00;60484.78;5076666;28;20234;-68
2021/11/11 08:10:32;;;;;;;18.40;7.27;;;;;;;-145.18;100.00;60484.78;5074469;28;20504;-68
2021/11/11 08:12:57;;;;;;;20.20;8.10;;;;;;;-145.18;100.00;60484.78;5078262;28;20174;-68
2021/11/11 08:15:23;;;;;;;21.33;8.37;;;;;;;-145.18;100.00;60484.78;5082798;28;20024;-68
2021/11/11 08:17:49;;;;;;;21.00;7.57;;;;;;;-145.18;100.00;60484.78;5081158;28;20310;-68
2021/11/11 08:20:16;;;;;;;21.77;8.50;;;;;;;-145.18;100.00;60484.78;5083636;28;20426;-68
2021/11/11 08:22:42;;;;;;;26.10;8.37;;;;;;;-145.18;100.00;60484.78;5084432;28;20192;-65
2021/11/11 08:25:10;;;;;;;22.73;7.57;;;;;;;-145.18;100.00;60484.78;5084187;28;20023;-68
2021/11/11 08:27:38;;;;;;;18.77;7.80;;;;;;;-145.18;100.00;60484.78;5080265;28;20031;-68
2021/11/11 08:30:06;;;;;;;21.80;8.43;;;;;;;-145.18;100.00;60484.78;5085033;28;20031;-66
2021/11/11 08:32:32;;;;;;;25.77;8.40;;;;;;;-145.18;100.00;60484.78;5079435;28;20028;-66
2021/11/11 08:34:58;;;;;;;21.90;8.30;;;;;;;-145.18;100.00;60484.78;5084398;28;20496;-66
2021/11/11 08:37:23;;;;;;;21.57;8.37;;;;;;;-145.18;100.00;60484.78;5078868;28;20119;-66
2021/11/11 08:39:49;;;;;;;26.73;8.37;;;;;;;-145.18;100.00;60484.78;5081239;28;20048;-66
2021/11/11 08:42:15;;;;;;;24.20;8.80;;;;;;;-145.18;100.00;60484.78;5082642;28;20066;-66
2021/11/11 08:44:45;;;;;;;23.40;8.73;;;;;;;-145.18;100.00;60484.78;5084147;28;20167;-67
2021/11/11 08:47:13;;;;;;;21.43;8.27;;;;;;;-145.18;100.00;60484.78;5081129;28;20209;-67
2021/11/11 08:49:40;;;;;;;25.60;8.70;;;;;;;-145.18;100.00;60484.78;5083128;28;20235;-66
2021/11/11 08:52:07;;;;;;;23.97;8.97;;;;;;;-145.18;100.00;60484.78;5080748;28;20116;-66
2021/11/11 08:54:32;;;;;;;23.93;8.90;;;;;;;-145.18;100.00;60484.78;5086920;28;20274;-66
2021/11/11 08:56:58;;;;;;;25.17;9.47;;;;;;;-145.18;100.00;60484.78;5081142;28;20008;-66
2021/11/11 08:59:24;;;;;;;26.00;9.50;;;;;;;-145.18;100.00;60484.78;5080301;28;20498;-67
2021/11/11 09:01:52;;;;;;;23.70;9.53;;;;;;;-145.18;100.00;60484.78;5080081;28;20099;-66
2021/11/11 09:04:18;;;;;;;28.40;8.70;;;;;;;-145.18;100.00;60484.78;5084451;28;20362;-67
2021/11/11 09:06:45;;;;;;;28.57;9.57;;;;;;;-145.18;100.00;60484.78;5077222;28;20352;-66
2021/11/11 09:09:12;;;;;;;22.70;8.60;;;;;;;-145.18;100.00;60484.78;5074542;28;20074;-67
2021/11/11 09:11:39;;;;;;;29.20;9.97;;;;;;;-145.18;100.00;60484.78;5081496;28;20028;-66
2021/11/11 09:14:05;;;;;;;22.40;8.83;;;;;;;-145.18;100.00;60484.78;5076503;28;20305;-66
2021/11/11 09:16:31;;;;;;;25.40;8.90;;;;;;;-145.18;100.00;60484.78;5073316;28;20481;-66
2021/11/11 09:18:56;;;;;;;28.83;9.43;;;;;;;-145.18;100.00;60484.78;5070487;28;20133;-66
2021/11/11 09:21:22;;;;;;;20.73;8.70;;;;;;;-145.18;100.00;60484.78;5081013;28;20341;-66
2021/11/11 09:23:48;;;;;;;22.67;8.73;;;;;;;-145.18;100.00;60484.78;5077538;28;20031;-66
2021/11/11 09:26:14;;;;;;;20.40;8.87;;;;;;;-145.18;100.00;60484.78;5077239;28;20084;-66
2021/11/11 09:28:41;;;;;;;20.07;9.10;;;;;;;-145.18;100.00;60484.78;5067248;28;20287;-66
2021/11/11 09:31:10;;;;;;;27.77;9.07;;;;;;;-145.18;100.00;60484.78;5077130;28;20244;-66
2021/11/11 09:33:37;;;;;;;21.97;9.00;;;;;;;-145.18;100.00;60484.78;5072213;28;20573;-66
2021/11/11 09:36:02;;;;;;;20.83;8.77;;;;;;;-145.18;100.00;60484.78;5069692;28;20100;-66
2021/11/11 09:38:28;;;;;;;23.60;9.00;;;;;;;-145.18;100.00;60484.78;5074659;28;20032;-67
2021/11/11 09:40:55;;;;;;;27.20;9.83;;;;;;;-145.18;100.00;60484.78;5067146;28;20028;-66
2021/11/11 09:43:22;;;;;;;26.20;9.43;;;;;;;-145.18;100.00;60484.78;5069741;28;20631;-66
2021/11/11 09:45:48;;;;;;;25.77;9.60;;;;;;;-145.18;100.00;60484.78;5076868;28;20292;-66
2021/11/11 09:48:21;;;;;;;25.30;9.57;;;;;;;-145.18;100.00;60484.78;5074724;28;20031;-72
2021/11/11 09:50:47;;;;;;;24.00;9.73;;;;;;;-145.18;100.00;60484.78;5074221;28;20087;-66
2021/11/11 09:53:21;;;;;;;27.50;10.20;;;;;;;-145.18;100.00;60484.78;5075833;28;20175;-66
2021/11/11 09:58:51;;;;;;;20.67;8.77;;;;;;;-145.18;100.00;60484.78;5072179;28;20624;-66
2021/11/11 10:01:20;;;;;;;23.50;8.87;;;;;;;-145.18;100.00;60484.78;5075432;28;20040;-66
2021/11/11 10:03:48;;;;;;;28.33;9.23;;;;;;;-145.18;100.00;60484.78;5076714;28;20451;-66
2021/11/11 10:06:18;;;;;;;28.60;9.33;;;;;;;-145.18;100.00;60484.78;5076408;28;20267;-66
2021/11/11 10:08:46;;;;;;;21.17;8.67;;;;;;;-145.18;100.00;60484.78;5074985;28;20260;-66
2021/11/11 10:11:29;;;;;;;20.17;8.93;;;;;;;-145.18;100.00;60484.78;5074299;28;20403;-66
2021/11/11 10:14:02;;;;;;;24.83;9.00;;;;;;;-145.18;100.00;60484.78;5069749;28;20035;-66
2021/11/11 10:16:29;;;;;;;25.63;8.90;;;;;;;-145.18;100.00;60484.78;5069810;28;20028;-66
2021/11/11 10:19:00;;;;;;;29.80;9.50;;;;;;;-145.18;100.00;60484.78;5072582;28;20111;-66
2021/11/11 10:21:39;;;;;;;22.80;9.43;;;;;;;-145.18;100.00;60484.78;5075762;28;20038;-66
2021/11/11 10:24:32;;;;;;;19.53;8.07;;;;;;;-145.18;100.00;60484.78;5076610;28;20035;-66
2021/11/11 10:30:05;;;;;;;23.63;8.37;;;;;;;-145.18;100.00;60484.78;5071917;28;20054;-66
2021/11/11 10:32:38;;;;;;;21.37;8.87;;;;;;;-145.18;100.00;60484.78;5074110;28;20036;-66
2021/11/11 10:35:04;;;;;;;21.50;8.17;;;;;;;-145.18;100.00;60484.78;5068346;28;20036;-66
2021/11/11 10:37:37;;;;;;;24.00;9.10;;;;;;;-145.18;100.00;60484.78;5071449;28;20116;-66
2021/11/11 10:40:19;;;;;;;20.63;9.03;;;;;;;-145.18;100.00;60484.78;5068847;28;20036;-66
2021/11/11 10:42:47;;;;;;;20.08;8.52;;;;;;;-145.18;100.00;60484.78;5068148;28;20047;-66
2021/11/11 10:45:15;;;;;;;22.03;8.37;;;;;;;-145.18;100.00;60484.78;5073813;28;20867;-66
2021/11/11 10:47:45;;;;;;;19.47;8.67;;;;;;;-145.18;100.00;60484.78;5077430;28;20412;-66
2021/11/11 10:50:20;;;;;;;18.57;7.90;;;;;;;-145.18;100.00;60484.78;5073591;28;20028;-66
2021/11/11 10:52:50;;;;;;;22.63;8.10;;;;;;;-145.18;100.00;60484.78;5076314;28;20336;-66
2021/11/11 10:55:18;;;;;;;23.57;8.27;;;;;;;-145.18;100.00;60484.78;5072437;28;20062;-66
2021/11/11 10:57:50;;;;;;;20.30;8.40;;;;;;;-145.18;100.00;60484.78;5074913;28;20063;-67
2021/11/11 11:00:15;;;;;;;19.30;6.83;;;;;;;-145.18;100.00;60484.78;5070009;28;20223;-66
2021/11/11 11:02:51;;;;;;;19.70;8.43;;;;;;;-145.18;100.00;60484.78;5070101;28;20032;-66
2021/11/11 11:05:18;;;;;;;22.27;8.50;;;;;;;-145.18;100.00;60484.78;5069306;28;20048;-66
2021/11/11 11:07:52;;;;;;;22.10;8.47;;;;;;;-145.18;100.00;60484.78;5073736;28;20032;-66
2021/11/11 11:10:17;;;;;;;20.20;7.57;;;;;;;-145.18;100.00;60484.78;5072342;28;20031;-68
2021/11/11 11:12:45;;;;;;;26.27;9.00;;;;;;;-145.18;100.00;60484.78;5074070;28;20412;-67
2021/11/11 11:15:41;;;;;;;22.80;8.77;;;;;;;-145.18;100.00;60484.78;5073070;28;20826;-67
2021/11/11 11:18:08;;;;;;;19.63;8.30;;;;;;;-145.18;100.00;60484.78;5070197;28;20298;-67
2021/11/11 11:20:34;;;;;;;23.00;8.33;;;;;;;-145.18;100.00;60484.78;5072418;28;20027;-67
2021/11/11 11:23:23;;;;;;;21.03;7.70;;;;;;;-145.18;100.00;60484.78;5074079;28;20035;-68
2021/11/11 11:26:02;;;;;;;21.70;8.37;;;;;;;-145.18;100.00;60484.78;5071736;28;20028;-67
2021/11/11 11:28:33;;;;;;;21.10;8.40;;;;;;;-145.18;100.00;60484.78;5073689;28;20370;-67
2021/11/11 11:31:02;;;;;;;19.50;8.40;;;;;;;-145.18;100.00;60484.78;5068808;28;20438;-67
2021/11/11 11:33:36;;;;;;;19.83;8.77;;;;;;;-145.18;100.00;60484.78;5069134;28;20035;-67
2021/11/11 11:36:03;;;;;;;23.87;8.33;;;;;;;-145.18;100.00;60484.78;5066384;28;20024;-68